Darstellungsparameter: Aktuell verwendete Einstellungen:
Skalierung der Graphiken ... ?
xyx+y,   Skalierungsfaktor:      Skalierung: Modus: x, Faktor: 1
Darstellungszeitraum ... ?
Vom - - bis: - -   Zeitraum: 09.11.2020 - 09.11.2020
Min/Max/Avg-Anzeige ... ?
Zeige MMA aktuell
Zeige MMA Monat
Zeige MMA alles
Zeige --A aktuell
Zeige --A Monat
Zeige --A alles
Keine MMA-Anzeige
MMA:
Average (ber die Originaldaten)
MMA-Basis: 09.11.2020 - 09.11.2020
Quicknavigation für Darstellung... ?
Tage:      1T, 2T, 3T, 5T -1T -2T -3T -5T +1T +2T +3T +5T
Wochen: 1W, 2W, 3W -1W -2W -3W +1W +2W +3W
Monate: 1M, 3M, 6M -1M -3M -6M +1M +3M +6M
Jahre:    1J, 3J, 5J, 10J -1J -3J -5J -10J +1J +3J +5J +10J
Nutze für die Darstellung ... ?
Originaldaten oder Mittelwerte auf ...
Stundenbasis Tagesbasis Wochenbasis
Monatsbasis Jahresbasis      Datenbasis: Original-Daten
Darstellen als:
Statistik (Auto) Statistik J:M      Darstellung:
Zur Graphik,    zurück zur Übersicht aller Sensoren.
 
Tabellarische Datenbersicht: ?
 
Sensor: Nr:Datum:Temp:Abs-Feuchte:Windchill:Wind:
Aussen-T/F 1 09-11-2020 00:00:00 9.6 C 8.79 g/m*3 9.6 C 0 km/h
2 09-11-2020 00:05:00 9.6 C 8.79 g/m*3 9.6 C 0 km/h
3 09-11-2020 00:10:00 9.6 C 8.79 g/m*3 9.6 C 0 km/h
4 09-11-2020 00:15:00 9.5 C 8.74 g/m*3 9.5 C 0 km/h
5 09-11-2020 00:20:00 9.5 C 8.74 g/m*3 9.5 C 0 km/h
6 09-11-2020 00:25:00 9.5 C 8.74 g/m*3 9.5 C 0 km/h
7 09-11-2020 00:30:00 9.4 C 8.68 g/m*3 9.4 C 0 km/h
8 09-11-2020 00:35:00 9.4 C 8.68 g/m*3 9.4 C 0 km/h
9 09-11-2020 00:40:00 9.4 C 8.68 g/m*3 9.4 C 0 km/h
10 09-11-2020 00:45:00 9.3 C 8.63 g/m*3 9.3 C 0 km/h
11 09-11-2020 00:50:00 9.3 C 8.63 g/m*3 9.3 C 0 km/h
12 09-11-2020 00:55:00 9.3 C 8.63 g/m*3 9.3 C 0 km/h
13 09-11-2020 01:00:00 9.4 C 8.68 g/m*3 9.4 C 0 km/h
14 09-11-2020 01:05:00 9.4 C 8.68 g/m*3 9.4 C 0 km/h
15 09-11-2020 01:10:00 9.4 C 8.68 g/m*3 9.4 C 0 km/h
16 09-11-2020 01:15:00 9.4 C 8.68 g/m*3 9.4 C 0 km/h
17 09-11-2020 01:20:00 9.4 C 8.68 g/m*3 9.4 C 0 km/h
18 09-11-2020 01:25:00 9.4 C 8.68 g/m*3 9.4 C 0 km/h
19 09-11-2020 01:30:00 9.4 C 8.68 g/m*3 9.4 C 0 km/h
20 09-11-2020 01:35:00 9.4 C 8.68 g/m*3 9.4 C 0 km/h
21 09-11-2020 01:40:00 9.4 C 8.68 g/m*3 9.4 C 0 km/h
22 09-11-2020 01:45:00 9.4 C 8.68 g/m*3 9.4 C 0 km/h
23 09-11-2020 01:50:00 9.4 C 8.68 g/m*3 9.4 C 0 km/h
24 09-11-2020 01:55:00 9.4 C 8.68 g/m*3 9.4 C 0 km/h
25 09-11-2020 02:00:00 9.4 C 8.68 g/m*3 9.4 C 0 km/h
Sensor: Nr:Datum:Temp:Abs-Feuchte:Windchill:Wind:
Aussen-T/F 26 09-11-2020 02:05:00 9.4 C 8.68 g/m*3 9.4 C 0 km/h
27 09-11-2020 02:10:00 9.4 C 8.68 g/m*3 9.4 C 0 km/h
28 09-11-2020 02:15:00 9.4 C 8.68 g/m*3 9.4 C 0 km/h
29 09-11-2020 02:20:00 9.4 C 8.68 g/m*3 9.4 C 0 km/h
30 09-11-2020 02:25:00 9.4 C 8.68 g/m*3 9.4 C 0 km/h
31 09-11-2020 02:30:00 9.4 C 8.68 g/m*3 9.4 C 0 km/h
32 09-11-2020 02:35:00 9.3 C 8.63 g/m*3 9.3 C 0 km/h
33 09-11-2020 02:40:00 9.3 C 8.63 g/m*3 9.3 C 0 km/h
34 09-11-2020 02:45:00 9.3 C 8.63 g/m*3 9.3 C 0 km/h
35 09-11-2020 02:50:00 9.3 C 8.63 g/m*3 9.3 C 0 km/h
36 09-11-2020 02:55:00 9.3 C 8.63 g/m*3 9.3 C 0 km/h
37 09-11-2020 03:00:00 9.4 C 8.68 g/m*3 9.4 C 0 km/h
38 09-11-2020 03:05:00 9.4 C 8.68 g/m*3 9.4 C 0 km/h
39 09-11-2020 03:10:00 9.4 C 8.68 g/m*3 9.4 C 0 km/h
40 09-11-2020 03:15:00 9.3 C 8.63 g/m*3 9.3 C 0 km/h
41 09-11-2020 03:20:00 9.3 C 8.63 g/m*3 9.3 C 0 km/h
42 09-11-2020 03:25:00 9.3 C 8.63 g/m*3 8.56 C 6.4 km/h
43 09-11-2020 03:30:00 9.3 C 8.63 g/m*3 8.16 C 8.1 km/h
44 09-11-2020 03:35:00 9.3 C 8.72 g/m*3 9.3 C 1.6 km/h
45 09-11-2020 03:40:00 9.3 C 8.63 g/m*3 9.3 C 0 km/h
46 09-11-2020 03:45:00 9.3 C 8.63 g/m*3 9.3 C 0 km/h
47 09-11-2020 03:50:00 9.3 C 8.63 g/m*3 9.3 C 0 km/h
48 09-11-2020 03:55:00 9.3 C 8.63 g/m*3 9.3 C 0 km/h
49 09-11-2020 04:00:00 9.3 C 8.63 g/m*3 9.3 C 0 km/h
50 09-11-2020 04:05:00 9.3 C 8.72 g/m*3 9.3 C 0 km/h
Sensor: Nr:Datum:Temp:Abs-Feuchte:Windchill:Wind:
Aussen-T/F 51 09-11-2020 04:10:00 9.3 C 8.72 g/m*3 9.3 C 0 km/h
52 09-11-2020 04:15:00 9.3 C 8.72 g/m*3 9.3 C 0 km/h
53 09-11-2020 04:20:00 9.3 C 8.72 g/m*3 9.3 C 0 km/h
54 09-11-2020 04:25:00 9.3 C 8.72 g/m*3 9.3 C 0 km/h
55 09-11-2020 04:30:00 9.3 C 8.63 g/m*3 9.3 C 0 km/h
56 09-11-2020 04:35:00 9.2 C 8.57 g/m*3 9.2 C 0 km/h
57 09-11-2020 04:40:00 9.1 C 8.52 g/m*3 9.1 C 0 km/h
58 09-11-2020 04:45:00 9.1 C 8.52 g/m*3 9.1 C 0 km/h
59 09-11-2020 04:50:00 8.9 C 8.41 g/m*3 8.9 C 0 km/h
60 09-11-2020 04:55:00 8.9 C 8.41 g/m*3 8.9 C 0 km/h
61 09-11-2020 05:00:00 8.8 C 8.36 g/m*3 8.8 C 0 km/h
62 09-11-2020 05:05:00 8.7 C 8.3 g/m*3 8.7 C 0 km/h
63 09-11-2020 05:10:00 8.6 C 8.25 g/m*3 8.6 C 0 km/h
64 09-11-2020 05:15:00 8.4 C 8.14 g/m*3 8.4 C 0 km/h
65 09-11-2020 05:20:00 8.3 C 8.09 g/m*3 8.3 C 0 km/h
66 09-11-2020 05:25:00 8.2 C 8.04 g/m*3 8.2 C 0 km/h
67 09-11-2020 05:30:00 8.3 C 8.09 g/m*3 8.3 C 0 km/h
68 09-11-2020 05:35:00 8.3 C 8.09 g/m*3 8.3 C 0 km/h
69 09-11-2020 05:40:00 8.3 C 8.18 g/m*3 8.3 C 0 km/h
70 09-11-2020 05:45:00 8.3 C 8.18 g/m*3 8.3 C 0 km/h
71 09-11-2020 05:50:00 8.4 C 8.23 g/m*3 8.4 C 0 km/h
72 09-11-2020 05:55:00 8.5 C 8.28 g/m*3 8.5 C 0 km/h
73 09-11-2020 06:00:00 8.6 C 8.34 g/m*3 8.6 C 0 km/h
74 09-11-2020 06:05:00 8.5 C 8.28 g/m*3 8.5 C 0 km/h
75 09-11-2020 06:10:00 8.4 C 8.23 g/m*3 8.4 C 0 km/h
Sensor: Nr:Datum:Temp:Abs-Feuchte:Windchill:Wind:
Aussen-T/F 76 09-11-2020 06:15:00 8.4 C 8.23 g/m*3 8.4 C 0 km/h
77 09-11-2020 06:20:00 8.4 C 8.23 g/m*3 8.4 C 0 km/h
78 09-11-2020 06:25:00 8.3 C 8.18 g/m*3 8.3 C 0 km/h
79 09-11-2020 06:30:00 8.3 C 8.09 g/m*3 8.3 C 0 km/h
80 09-11-2020 06:35:00 8.2 C 8.04 g/m*3 8.2 C 0 km/h
81 09-11-2020 06:40:00 8.1 C 7.99 g/m*3 8.1 C 0 km/h
82 09-11-2020 06:45:00 8.1 C 8.07 g/m*3 8.1 C 0 km/h
83 09-11-2020 06:50:00 8.1 C 8.07 g/m*3 8.1 C 0 km/h
84 09-11-2020 06:55:00 8.2 C 8.12 g/m*3 8.2 C 0 km/h
85 09-11-2020 07:00:00 8.2 C 8.12 g/m*3 8.2 C 0 km/h
86 09-11-2020 07:05:00 8.2 C 8.12 g/m*3 8.2 C 0 km/h
87 09-11-2020 07:10:00 8.2 C 8.12 g/m*3 8.2 C 0 km/h
88 09-11-2020 07:15:00 8.2 C 8.12 g/m*3 8.2 C 0 km/h
89 09-11-2020 07:20:00 8.2 C 8.12 g/m*3 8.2 C 0 km/h
90 09-11-2020 07:25:00 8.2 C 8.12 g/m*3 8.2 C 0 km/h
91 09-11-2020 07:30:00 8.2 C 8.12 g/m*3 8.2 C 0 km/h
92 09-11-2020 07:35:00 8.1 C 8.07 g/m*3 8.1 C 0 km/h
93 09-11-2020 07:40:00 7.9 C 7.97 g/m*3 7.9 C 0 km/h
94 09-11-2020 07:45:00 7.8 C 7.83 g/m*3 7.8 C 0 km/h
95 09-11-2020 07:50:00 7.8 C 7.92 g/m*3 7.8 C 0 km/h
96 09-11-2020 07:55:00 7.9 C 7.97 g/m*3 7.9 C 0 km/h
97 09-11-2020 08:00:00 7.9 C 7.97 g/m*3 7.9 C 0 km/h
98 09-11-2020 08:05:00 8 C 8.02 g/m*3 8 C 0 km/h
99 09-11-2020 08:10:00 8.1 C 8.07 g/m*3 8.1 C 0 km/h
100 09-11-2020 08:15:00 8.2 C 8.12 g/m*3 8.2 C 0 km/h
Sensor: Nr:Datum:Temp:Abs-Feuchte:Windchill:Wind:
Aussen-T/F 101 09-11-2020 08:20:00 8.3 C 8.18 g/m*3 8.3 C 0 km/h
102 09-11-2020 08:25:00 8.3 C 8.18 g/m*3 8.3 C 0 km/h
103 09-11-2020 08:30:00 8.4 C 8.23 g/m*3 8.4 C 0 km/h
104 09-11-2020 08:35:00 8.5 C 8.28 g/m*3 8.5 C 0 km/h
105 09-11-2020 08:40:00 8.5 C 8.28 g/m*3 8.5 C 0 km/h
106 09-11-2020 08:45:00 8.6 C 8.34 g/m*3 8.6 C 0 km/h
107 09-11-2020 08:50:00 8.7 C 8.39 g/m*3 8.7 C 0 km/h
108 09-11-2020 08:55:00 8.7 C 8.39 g/m*3 8.7 C 0 km/h
109 09-11-2020 09:00:00 8.8 C 8.44 g/m*3 8.8 C 0 km/h
110 09-11-2020 09:05:00 8.8 C 8.44 g/m*3 8.8 C 0 km/h
111 09-11-2020 09:10:00 8.8 C 8.44 g/m*3 8.8 C 0 km/h
112 09-11-2020 09:15:00 8.8 C 8.44 g/m*3 8.8 C 0 km/h
113 09-11-2020 09:20:00 8.8 C 8.44 g/m*3 8.8 C 0 km/h
114 09-11-2020 09:25:00 8.8 C 8.44 g/m*3 8.8 C 0 km/h
115 09-11-2020 09:30:00 8.9 C 8.5 g/m*3 8.9 C 0 km/h
116 09-11-2020 09:35:00 9 C 8.55 g/m*3 9 C 0 km/h
117 09-11-2020 09:40:00 9.1 C 8.61 g/m*3 9.1 C 0 km/h
118 09-11-2020 09:45:00 9.2 C 8.66 g/m*3 9.2 C 0 km/h
119 09-11-2020 09:50:00 9.3 C 8.72 g/m*3 9.3 C 0 km/h
120 09-11-2020 09:55:00 9.3 C 8.72 g/m*3 9.3 C 0 km/h
121 09-11-2020 10:00:00 9.4 C 8.77 g/m*3 9.4 C 0 km/h
122 09-11-2020 10:05:00 9.4 C 8.77 g/m*3 9.4 C 0 km/h
123 09-11-2020 10:10:00 9.4 C 8.77 g/m*3 9.4 C 0 km/h
124 09-11-2020 10:15:00 9.5 C 8.83 g/m*3 9.5 C 0 km/h
125 09-11-2020 10:20:00 9.6 C 8.89 g/m*3 9.6 C 0 km/h
Sensor: Nr:Datum:Temp:Abs-Feuchte:Windchill:Wind:
Aussen-T/F 126 09-11-2020 10:25:00 9.6 C 8.89 g/m*3 9.6 C 0 km/h
127 09-11-2020 10:30:00 9.7 C 8.94 g/m*3 9.7 C 0 km/h
128 09-11-2020 10:35:00 9.8 C 9 g/m*3 9.8 C 0 km/h
129 09-11-2020 10:40:00 9.9 C 9.15 g/m*3 9.9 C 0 km/h
130 09-11-2020 10:45:00 10.1 C 9.17 g/m*3 10.1 C 0 km/h
131 09-11-2020 10:50:00 10.3 C 9.39 g/m*3 10.3 C 0 km/h
132 09-11-2020 10:55:00 10.5 C 9.5 g/m*3 10.5 C 0 km/h
133 09-11-2020 11:00:00 10.6 C 9.57 g/m*3 10.6 C 0 km/h
134 09-11-2020 11:05:00 10.6 C 9.57 g/m*3 10.6 C 0 km/h
135 09-11-2020 11:10:00 10.7 C 9.63 g/m*3 10.7 C 0 km/h
136 09-11-2020 11:15:00 10.8 C 9.69 g/m*3 10.8 C 0 km/h
137 09-11-2020 11:20:00 10.9 C 9.75 g/m*3 10.9 C 0 km/h
138 09-11-2020 11:25:00 11 C 9.81 g/m*3 11 C 0 km/h
139 09-11-2020 11:30:00 11.1 C 9.87 g/m*3 11.1 C 0 km/h
140 09-11-2020 11:35:00 11.2 C 9.93 g/m*3 11.2 C 0 km/h
141 09-11-2020 11:40:00 11.2 C 9.93 g/m*3 11.2 C 0 km/h
142 09-11-2020 11:45:00 11.3 C 10 g/m*3 11.3 C 0 km/h
143 09-11-2020 11:50:00 11.3 C 10 g/m*3 11.3 C 0 km/h
144 09-11-2020 11:55:00 11.4 C 10.06 g/m*3 11.4 C 0 km/h
145 09-11-2020 12:00:00 11.4 C 10.06 g/m*3 11.4 C 0 km/h
146 09-11-2020 12:05:00 11.4 C 10.06 g/m*3 11.4 C 0 km/h
147 09-11-2020 12:10:00 11.5 C 10.02 g/m*3 11.5 C 0 km/h
148 09-11-2020 12:15:00 11.5 C 10.02 g/m*3 11.5 C 0 km/h
149 09-11-2020 12:20:00 11.6 C 10.08 g/m*3 11.6 C 0 km/h
150 09-11-2020 12:25:00 11.6 C 10.19 g/m*3 11.6 C 0 km/h
Sensor: Nr:Datum:Temp:Abs-Feuchte:Windchill:Wind:
Aussen-T/F 151 09-11-2020 12:30:00 11.7 C 10.25 g/m*3 11.7 C 0 km/h
152 09-11-2020 12:35:00 11.8 C 10.31 g/m*3 11.8 C 0 km/h
153 09-11-2020 12:40:00 11.9 C 10.38 g/m*3 11.9 C 0 km/h
154 09-11-2020 12:45:00 12.2 C 10.58 g/m*3 12.2 C 0 km/h
155 09-11-2020 12:50:00 12.4 C 10.71 g/m*3 12.4 C 0 km/h
156 09-11-2020 12:55:00 12.6 C 10.84 g/m*3 12.6 C 0 km/h
157 09-11-2020 13:00:00 12.7 C 10.91 g/m*3 12.7 C 0 km/h
158 09-11-2020 13:05:00 12.8 C 10.98 g/m*3 12.8 C 0 km/h
159 09-11-2020 13:10:00 12.8 C 10.98 g/m*3 12.8 C 0 km/h
160 09-11-2020 13:15:00 12.9 C 11.05 g/m*3 12.9 C 0 km/h
161 09-11-2020 13:20:00 13.1 C 11.18 g/m*3 13.1 C 0 km/h
162 09-11-2020 13:25:00 13.1 C 11.18 g/m*3 13.1 C 0 km/h
163 09-11-2020 13:30:00 13.2 C 11.14 g/m*3 13.2 C 0 km/h
164 09-11-2020 13:35:00 13.1 C 11.07 g/m*3 13.1 C 0 km/h
165 09-11-2020 13:40:00 13.2 C 11.14 g/m*3 13.2 C 0 km/h
166 09-11-2020 13:45:00 13.3 C 11.09 g/m*3 13.3 C 0 km/h
167 09-11-2020 13:50:00 13.4 C 11.16 g/m*3 13.4 C 0 km/h
168 09-11-2020 13:55:00 13.4 C 10.93 g/m*3 13.4 C 0 km/h
169 09-11-2020 14:00:00 13.6 C 11.06 g/m*3 13.6 C 0 km/h
170 09-11-2020 14:05:00 13.6 C 10.95 g/m*3 13.6 C 3.2 km/h
171 09-11-2020 14:10:00 13.6 C 10.83 g/m*3 13.6 C 3.2 km/h
172 09-11-2020 14:15:00 13.7 C 10.89 g/m*3 13.7 C 0 km/h
173 09-11-2020 14:20:00 13.7 C 10.89 g/m*3 13.7 C 0 km/h
174 09-11-2020 14:25:00 13.8 C 10.96 g/m*3 13.8 C 0 km/h
175 09-11-2020 14:30:00 13.8 C 10.96 g/m*3 13.8 C 0 km/h
Sensor: Nr:Datum:Temp:Abs-Feuchte:Windchill:Wind:
Aussen-T/F 176 09-11-2020 14:35:00 13.7 C 10.89 g/m*3 13.7 C 0 km/h
177 09-11-2020 14:40:00 13.7 C 10.89 g/m*3 13.7 C 0 km/h
178 09-11-2020 14:45:00 13.7 C 11.01 g/m*3 13.7 C 0 km/h
179 09-11-2020 14:50:00 13.6 C 10.95 g/m*3 13.6 C 0 km/h
180 09-11-2020 14:55:00 13.6 C 10.95 g/m*3 13.6 C 0 km/h
181 09-11-2020 15:00:00 13.6 C 10.95 g/m*3 13.6 C 0 km/h
182 09-11-2020 15:05:00 13.5 C 10.88 g/m*3 13.5 C 1.6 km/h
183 09-11-2020 15:10:00 13.4 C 10.81 g/m*3 13.4 C 0 km/h
184 09-11-2020 15:15:00 13.3 C 10.74 g/m*3 13.3 C 1.6 km/h
185 09-11-2020 15:20:00 13.3 C 10.74 g/m*3 13.3 C 0 km/h
186 09-11-2020 15:25:00 13.2 C 10.68 g/m*3 13.2 C 0 km/h
187 09-11-2020 15:30:00 13.2 C 10.68 g/m*3 13.2 C 0 km/h
188 09-11-2020 15:35:00 13.1 C 10.61 g/m*3 13.1 C 0 km/h
189 09-11-2020 15:40:00 13.1 C 10.61 g/m*3 13.1 C 0 km/h
190 09-11-2020 15:45:00 13 C 10.55 g/m*3 13 C 0 km/h
191 09-11-2020 15:50:00 13 C 10.55 g/m*3 13 C 0 km/h
192 09-11-2020 15:55:00 12.9 C 10.48 g/m*3 12.9 C 0 km/h
193 09-11-2020 16:00:00 12.8 C 10.42 g/m*3 12.8 C 0 km/h
194 09-11-2020 16:05:00 12.8 C 10.42 g/m*3 12.8 C 0 km/h
195 09-11-2020 16:10:00 12.7 C 10.35 g/m*3 12.7 C 0 km/h
196 09-11-2020 16:15:00 12.7 C 10.46 g/m*3 12.7 C 0 km/h
197 09-11-2020 16:20:00 12.6 C 10.29 g/m*3 12.6 C 0 km/h
198 09-11-2020 16:25:00 12.5 C 10.33 g/m*3 12.5 C 0 km/h
199 09-11-2020 16:30:00 12.4 C 10.27 g/m*3 12.4 C 0 km/h
200 09-11-2020 16:35:00 12.4 C 10.27 g/m*3 12.4 C 0 km/h
Sensor: Nr:Datum:Temp:Abs-Feuchte:Windchill:Wind:
Aussen-T/F 201 09-11-2020 16:40:00 12.3 C 10.21 g/m*3 12.3 C 0 km/h
202 09-11-2020 16:45:00 12.2 C 10.14 g/m*3 12.2 C 0 km/h
203 09-11-2020 16:50:00 12.2 C 10.14 g/m*3 12.2 C 0 km/h
204 09-11-2020 16:55:00 12.2 C 10.14 g/m*3 12.2 C 3.2 km/h
205 09-11-2020 17:00:00 12.1 C 10.08 g/m*3 12.1 C 1.6 km/h
206 09-11-2020 17:05:00 11.9 C 9.96 g/m*3 11.9 C 1.6 km/h
207 09-11-2020 17:10:00 11.8 C 9.89 g/m*3 11.8 C 3.2 km/h
208 09-11-2020 17:15:00 11.7 C 9.83 g/m*3 11.7 C 3.2 km/h
209 09-11-2020 17:20:00 11.6 C 9.77 g/m*3 11.6 C 3.2 km/h
210 09-11-2020 17:25:00 11.6 C 9.77 g/m*3 11.6 C 3.2 km/h
211 09-11-2020 17:30:00 11.4 C 9.65 g/m*3 11.4 C 3.2 km/h
212 09-11-2020 17:35:00 11.4 C 9.65 g/m*3 11.4 C 3.2 km/h
213 09-11-2020 17:40:00 11.3 C 9.59 g/m*3 11.3 C 1.6 km/h
214 09-11-2020 17:45:00 11.2 C 9.53 g/m*3 11.2 C 3.2 km/h
215 09-11-2020 17:50:00 11.1 C 9.57 g/m*3 11.1 C 3.2 km/h
216 09-11-2020 17:55:00 11.1 C 9.57 g/m*3 11.1 C 3.2 km/h
217 09-11-2020 18:00:00 11 C 9.51 g/m*3 11 C 0 km/h
218 09-11-2020 18:05:00 10.8 C 9.29 g/m*3 10.8 C 3.2 km/h
219 09-11-2020 18:10:00 10.7 C 9.33 g/m*3 10.7 C 0 km/h
220 09-11-2020 18:15:00 10.6 C 9.27 g/m*3 10.6 C 0 km/h
221 09-11-2020 18:20:00 10.4 C 9.16 g/m*3 10.4 C 0 km/h
222 09-11-2020 18:25:00 10.4 C 9.16 g/m*3 10.4 C 3.2 km/h
223 09-11-2020 18:30:00 10.4 C 9.16 g/m*3 10.4 C 3.2 km/h
224 09-11-2020 18:35:00 10.4 C 9.16 g/m*3 10.4 C 0 km/h
225 09-11-2020 18:40:00 10.3 C 9.1 g/m*3 10.3 C 0 km/h
Sensor: Nr:Datum:Temp:Abs-Feuchte:Windchill:Wind:
Aussen-T/F 226 09-11-2020 18:45:00 10.3 C 9.1 g/m*3 10.3 C 0 km/h
227 09-11-2020 18:50:00 10.2 C 9.04 g/m*3 10.2 C 0 km/h
228 09-11-2020 18:55:00 10.1 C 8.98 g/m*3 10.1 C 0 km/h
229 09-11-2020 19:00:00 10 C 8.93 g/m*3 10 C 0 km/h
230 09-11-2020 19:05:00 9.9 C 8.87 g/m*3 9.9 C 0 km/h
231 09-11-2020 19:10:00 9.8 C 8.81 g/m*3 9.8 C 0 km/h
232 09-11-2020 19:15:00 9.8 C 8.81 g/m*3 9.8 C 0 km/h
233 09-11-2020 19:20:00 9.7 C 8.85 g/m*3 9.7 C 0 km/h
234 09-11-2020 19:25:00 9.7 C 8.76 g/m*3 9.7 C 0 km/h
235 09-11-2020 19:30:00 9.6 C 8.7 g/m*3 9.6 C 0 km/h
236 09-11-2020 19:35:00 9.6 C 8.79 g/m*3 9.6 C 0 km/h
237 09-11-2020 19:40:00 9.6 C 8.79 g/m*3 9.6 C 0 km/h
238 09-11-2020 19:45:00 9.5 C 8.74 g/m*3 9.5 C 0 km/h
239 09-11-2020 19:50:00 9.4 C 8.68 g/m*3 9.4 C 0 km/h
240 09-11-2020 19:55:00 9.4 C 8.68 g/m*3 9.4 C 0 km/h
241 09-11-2020 20:00:00 9.3 C 8.63 g/m*3 9.3 C 0 km/h
242 09-11-2020 20:05:00 9.3 C 8.63 g/m*3 9.3 C 0 km/h
243 09-11-2020 20:10:00 9.3 C 8.63 g/m*3 9.3 C 0 km/h
244 09-11-2020 20:15:00 9.3 C 8.63 g/m*3 9.3 C 0 km/h
245 09-11-2020 20:20:00 9.2 C 8.57 g/m*3 9.2 C 0 km/h
246 09-11-2020 20:25:00 9.1 C 8.52 g/m*3 9.1 C 1.6 km/h
247 09-11-2020 20:30:00 9.1 C 8.52 g/m*3 9.1 C 3.2 km/h
248 09-11-2020 20:35:00 9 C 8.46 g/m*3 9 C 0 km/h
249 09-11-2020 20:40:00 8.9 C 8.41 g/m*3 8.9 C 0 km/h
250 09-11-2020 20:45:00 8.9 C 8.41 g/m*3 8.9 C 0 km/h
Sensor: Nr:Datum:Temp:Abs-Feuchte:Windchill:Wind:
Aussen-T/F 251 09-11-2020 20:50:00 8.8 C 8.36 g/m*3 8.8 C 0 km/h
252 09-11-2020 20:55:00 8.8 C 8.36 g/m*3 8.8 C 0 km/h
253 09-11-2020 21:00:00 8.7 C 8.3 g/m*3 8.7 C 0 km/h
254 09-11-2020 21:05:00 8.6 C 8.25 g/m*3 8.6 C 0 km/h
255 09-11-2020 21:10:00 8.5 C 8.2 g/m*3 8.5 C 0 km/h
256 09-11-2020 21:15:00 8.4 C 8.14 g/m*3 8.4 C 0 km/h
257 09-11-2020 21:20:00 8.3 C 8.09 g/m*3 8.3 C 0 km/h
258 09-11-2020 21:25:00 8.2 C 8.04 g/m*3 8.2 C 0 km/h
259 09-11-2020 21:30:00 8.1 C 7.99 g/m*3 8.1 C 0 km/h
260 09-11-2020 21:35:00 8 C 7.94 g/m*3 8 C 0 km/h
261 09-11-2020 21:40:00 7.9 C 7.89 g/m*3 7.9 C 0 km/h
262 09-11-2020 21:45:00 7.8 C 7.83 g/m*3 7.8 C 0 km/h
263 09-11-2020 21:50:00 7.8 C 7.83 g/m*3 7.8 C 0 km/h
264 09-11-2020 21:55:00 7.7 C 7.78 g/m*3 7.7 C 0 km/h
265 09-11-2020 22:00:00 7.6 C 7.73 g/m*3 7.6 C 0 km/h
266 09-11-2020 22:05:00 7.5 C 7.68 g/m*3 7.5 C 0 km/h
267 09-11-2020 22:10:00 7.4 C 7.63 g/m*3 7.4 C 0 km/h
268 09-11-2020 22:15:00 7.3 C 7.58 g/m*3 7.3 C 0 km/h
269 09-11-2020 22:20:00 7.3 C 7.58 g/m*3 7.3 C 0 km/h
270 09-11-2020 22:25:00 7.2 C 7.54 g/m*3 7.2 C 0 km/h
271 09-11-2020 22:30:00 7.2 C 7.54 g/m*3 7.2 C 0 km/h
272 09-11-2020 22:35:00 7.1 C 7.49 g/m*3 7.1 C 0 km/h
273 09-11-2020 22:40:00 7 C 7.44 g/m*3 7 C 0 km/h
274 09-11-2020 22:45:00 7.1 C 7.49 g/m*3 7.1 C 0 km/h
275 09-11-2020 22:50:00 7 C 7.44 g/m*3 7 C 0 km/h
Sensor: Nr:Datum:Temp:Abs-Feuchte:Windchill:Wind:
Aussen-T/F 276 09-11-2020 22:55:00 7 C 7.44 g/m*3 7 C 0 km/h
277 09-11-2020 23:00:00 6.9 C 7.39 g/m*3 6.9 C 0 km/h
278 09-11-2020 23:05:00 6.9 C 7.39 g/m*3 6.9 C 0 km/h
279 09-11-2020 23:10:00 6.8 C 7.34 g/m*3 6.8 C 0 km/h
280 09-11-2020 23:15:00 6.7 C 7.29 g/m*3 6.7 C 0 km/h
281 09-11-2020 23:20:00 6.7 C 7.29 g/m*3 6.7 C 0 km/h
282 09-11-2020 23:25:00 6.7 C 7.29 g/m*3 6.7 C 0 km/h
283 09-11-2020 23:30:00 6.7 C 7.29 g/m*3 6.7 C 0 km/h
284 09-11-2020 23:35:00 6.7 C 7.29 g/m*3 6.7 C 0 km/h
285 09-11-2020 23:40:00 6.6 C 7.25 g/m*3 6.6 C 0 km/h
286 09-11-2020 23:45:00 6.4 C 7.15 g/m*3 6.4 C 0 km/h
287 09-11-2020 23:50:00 6.3 C 7.11 g/m*3 6.3 C 0 km/h
288 09-11-2020 23:55:00 6.2 C 7.06 g/m*3 6.2 C 0 km/h

Legende:
   Min
   Max


Maximal/Minimal-Werte vom 09.11.2020 - 09.11.2020

Sensor Min Max Avg
Temp
(Aussen-T/F)
6.2 °C
09-11-2020  23:55:00
13.8 °C
09-11-2020  14:25:00
9.86 °C
Abs-Feuchte
(Aussen-T/F)
7.06 g/m*3
09-11-2020  23:55:00
11.18 g/m*3
09-11-2020  13:20:00
8.95 g/m*3
Windchill
(Aussen-T/F)
6.2 C
09-11-2020  23:55:00
13.8 C
09-11-2020  14:25:00
9.82 C

Die Daten stammen von einer Davis Vantage Pro 2 Wetter-Station und werden unter Linux mit der Software wview2wettercgi und aufbereitet. Alle Angaben erfolgen ohne Gewähr für ihre Vollständigkeit oder Richtigkeit.
Kontakt: Rainer Krienke krienke@uni-koblenz.de . Meine Webseiten an der Uni Koblenz oder privat.
Version: $Revision: 0.78 $